Česky Dansk Deutsch English Español Suomi Français Magyar Italiano Nederlands norsk Polski Português svenska Türkçe

 

Het Weer

Inverness / Dalcross (Groot Britanië)

16:50, 21 juli 2016 (GMT)

NWNNE
WE
SWSSE
Home            
Inverness / Dalcross Kinloss Tain Range Lossiemouth Aberdeen / Dyce Wick Perth / Scone Dundee / Riverside Leuchars Stornoway Kirkwall Airport Edinburgh Airport Glasgow Airport Benbecula Tiree Prestwick Airport Islay Campbeltown Machrihanish Boulmer Spadeadam Carlisle West Freugh

Om een weerknop op uw website of weblog te plaatsen, copieer onderstaande code en plak die in uw pagina. In het eerste vakje staat HTML-code, in het tweede vakje UBB-code.


Add to Google

Details

Wind speed:2 bf, 6 kn, 3.1 m/s, 6.9 miles/h, 11.1 km/h
Wind direction:NW, 310°
Visibilidade global:Maior de 10000 m, 10 km, 32800 ft, 6.2 miles
Clouds:Algumas nuvens at 2500 ft, 762 m
Temperatura:23°C, 73°F
Sensaço térmica:25°C, 77°F
Ponto de orvalho:13°C, 55°F
Pressão atmosférica:1012 hPa, 759.1 mmHg, 29.88 inHg, 0.999 atm
Humidade relativa:53.3 %
METAR:EGPE 211650Z 31006KT 9999 FEW025 23/13 Q1012

Snelkoppelingen

Actuele weersinformatie van de hele wereld. Voeg locaties toe met het plus (+) symbool. Deze snelkoppelingen kunnen worden toegevoegd aan Google.

Lid van de Technetium groep

website free tracking
StatCounter NetStat W3C Validator

04-10-2022 06:50:24
astro.technetium.be money.technetium.be phote.technetium.be tafeltennistafel.technetium.be www.ligfiets.net